Terminal Aerodrome Forecast
Issued by NWS Amarillo, TX

Home | Current Version | Previous Version | Text Only | Print | Product List | Glossary On
Versions: 1 2 3 4 5 6 7 8 9 10 11 12 13 14 15 16 17 18
000
FTUS44 KAMA 301120
TAFAMA
TAF
KAMA 301120Z 3012/0112 32007KT P6SM SCT050 BKN250
     FM302100 33008KT P6SM BKN050 OVC100
     FM010200 02015G20KT P6SM BKN050 OVC080
     FM010600 35017G24KT P6SM VCSH SCT010 OVC050=

USA.gov is the U.S. government's official web portal to all federal, state and local government web resources and services.